KMDH/MDH METAR and TAF weather

Enter ICAO airport designator
Station Type Date Time Source
KMDH METAR 2021/04/18 00:52 UTC NOAA

KMDH 180052Z 29004KT 10SM SCT060 SCT070 OVC085 13/06 A2997 RMK AO2 SLP149 T01280061


Station Type Date Time Source
KMDH Decoded METAR 2021/04/18 00:52 UTC NOAA

SOUTHERN ILLINOIS AIRPORT, IL, United States (KMDH) 37-47N 089-15W 130M
Apr 17, 2021 - 08:52 PM EDT / 2021.04.18 0052 UTC
Wind: from the WNW (290 degrees) at 5 MPH (4 KT):0
Visibility: 10 mile(s):0
Sky conditions: overcast
Temperature: 55.0 F (12.8 C)
Dew Point: 43.0 F (6.1 C)
Relative Humidity: 63%
Pressure (altimeter): 29.97 in. Hg (1014 hPa)
ob: KMDH 180052Z 29004KT 10SM SCT060 SCT070 OVC085 13/06 A2997 RMK AO2 SLP149 T01280061
cycle: 1

Station Type Date Time Source
KMDH TAF UTC NOAA

Error!

Example: see airport list